createdAt,value
2019-02-09T00:01:12.754Z,135.87
2019-02-09T00:03:40.281Z,139.73
2019-02-09T00:06:07.794Z,160.00
2019-02-09T00:08:35.377Z,148.17
2019-02-09T00:11:05.153Z,138.33
2019-02-09T00:13:32.687Z,151.40
2019-02-09T00:16:00.240Z,144.40
2019-02-09T00:18:27.718Z,156.07
2019-02-09T00:20:55.231Z,144.50
2019-02-09T00:23:22.801Z,143.93
2019-02-09T00:25:50.381Z,140.30
2019-02-09T00:28:17.897Z,135.80
2019-02-09T00:30:45.420Z,141.60
2019-02-09T00:33:12.921Z,155.17
2019-02-09T00:35:40.501Z,144.07
2019-02-09T00:38:08.001Z,145.93
2019-02-09T00:40:35.511Z,144.97
2019-02-09T00:43:03.047Z,151.47
2019-02-09T00:45:30.654Z,153.53
2019-02-09T00:47:58.151Z,153.57
2019-02-09T00:50:25.681Z,164.97
2019-02-09T00:52:53.287Z,141.63
2019-02-09T00:55:21.559Z,149.50
2019-02-09T00:57:49.417Z,147.33
2019-02-09T01:00:19.598Z,160.53
2019-02-09T01:02:47.249Z,155.87
2019-02-09T01:05:16.397Z,165.83
2019-02-09T01:07:43.939Z,158.37
2019-02-09T01:10:12.745Z,140.87
2019-02-09T01:12:40.237Z,160.47
2019-02-09T01:15:10.304Z,154.97
2019-02-09T01:17:40.123Z,151.30
2019-02-09T01:20:43.525Z,142.50
2019-02-09T01:23:14.437Z,144.77
2019-02-09T01:25:42.139Z,152.97
2019-02-09T01:28:09.732Z,170.67
2019-02-09T01:30:37.343Z,180.43
2019-02-09T01:33:04.869Z,166.40
2019-02-09T01:35:32.409Z,153.73
2019-02-09T01:37:59.905Z,165.77
2019-02-09T01:40:27.426Z,137.07
2019-02-09T01:42:55.094Z,160.97
2019-02-09T01:45:24.823Z,152.43
2019-02-09T01:47:52.633Z,152.50
2019-02-09T01:50:20.336Z,153.53
2019-02-09T01:52:47.845Z,157.40
2019-02-09T01:55:15.361Z,156.03
2019-02-09T01:57:43.001Z,145.90
2019-02-09T02:00:21.881Z,151.20
2019-02-09T02:02:49.739Z,140.20
2019-02-09T02:05:19.058Z,155.80
2019-02-09T02:07:46.585Z,144.50
2019-02-09T02:10:23.517Z,145.37
2019-02-09T02:12:51.146Z,146.80
2019-02-09T02:15:18.674Z,142.40
2019-02-09T02:17:46.217Z,145.53
2019-02-09T02:20:16.177Z,151.47
2019-02-09T02:22:43.795Z,148.37
2019-02-09T02:25:11.649Z,143.77
2019-02-09T02:27:39.155Z,140.57
2019-02-09T02:30:08.334Z,153.33
2019-02-09T02:32:35.880Z,151.10
2019-02-09T02:35:04.587Z,153.40
2019-02-09T02:37:32.099Z,155.70
2019-02-09T02:39:59.645Z,155.07
2019-02-09T02:42:27.163Z,153.80
2019-02-09T02:44:54.677Z,168.07
2019-02-09T02:47:22.245Z,154.53
2019-02-09T02:49:51.022Z,155.00
2019-02-09T02:52:18.528Z,153.10
2019-02-09T02:54:46.089Z,164.20
2019-02-09T02:57:13.585Z,158.67
2019-02-09T02:59:41.117Z,154.27
2019-02-09T03:02:08.622Z,139.93
2019-02-09T03:04:36.190Z,152.00
2019-02-09T03:07:03.765Z,163.20
2019-02-09T03:09:31.272Z,154.03
2019-02-09T03:11:58.873Z,146.97
2019-02-09T03:14:26.377Z,161.30
2019-02-09T03:16:53.921Z,155.33
2019-02-09T03:19:21.495Z,138.37
2019-02-09T03:21:49.024Z,147.27
2019-02-09T03:24:16.521Z,147.47
2019-02-09T03:26:44.093Z,141.53
2019-02-09T03:29:11.586Z,146.30
2019-02-09T03:31:39.112Z,145.53
2019-02-09T03:34:06.669Z,144.40
2019-02-09T03:36:34.155Z,142.70
2019-02-09T03:39:01.685Z,141.33
2019-02-09T03:41:29.269Z,138.60
2019-02-09T03:43:56.733Z,144.80
2019-02-09T03:46:24.286Z,135.13
2019-02-09T03:48:53.843Z,131.03
2019-02-09T03:51:21.333Z,137.73
2019-02-09T03:53:49.955Z,143.00
2019-02-09T03:56:17.449Z,141.23
2019-02-09T03:58:44.937Z,133.27
2019-02-09T04:01:12.485Z,136.53
2019-02-09T04:03:40.033Z,118.27
2019-02-09T04:06:07.549Z,140.57
2019-02-09T04:08:35.121Z,122.23
2019-02-09T04:11:02.628Z,140.17
2019-02-09T04:13:30.134Z,135.63
2019-02-09T04:15:57.691Z,129.90
2019-02-09T04:18:25.232Z,117.47
2019-02-09T04:20:52.764Z,123.60
2019-02-09T04:23:20.823Z,134.90
2019-02-09T04:25:48.305Z,128.40
2019-02-09T04:28:15.798Z,134.17
2019-02-09T04:30:43.305Z,129.70
2019-02-09T04:33:10.847Z,126.07
2019-02-09T04:35:38.398Z,123.20
2019-02-09T04:38:05.887Z,133.30
2019-02-09T04:40:33.377Z,123.93
2019-02-09T04:43:00.946Z,137.33
2019-02-09T04:45:28.769Z,129.87
2019-02-09T04:47:56.247Z,117.80
2019-02-09T04:50:23.793Z,128.60
2019-02-09T04:52:51.326Z,116.97
2019-02-09T04:55:20.585Z,109.47
2019-02-09T04:57:48.219Z,112.40
2019-02-09T05:00:18.262Z,119.73
2019-02-09T05:02:45.787Z,116.13
2019-02-09T05:05:13.439Z,122.03
2019-02-09T05:07:40.971Z,108.97
2019-02-09T05:10:09.741Z,124.50
2019-02-09T05:12:37.288Z,113.93
2019-02-09T05:15:06.394Z,109.33
2019-02-09T05:17:33.911Z,111.53
2019-02-09T05:20:01.472Z,105.40
2019-02-09T05:22:28.980Z,105.07
2019-02-09T05:24:56.496Z,94.67
2019-02-09T05:27:25.603Z,100.83
2019-02-09T05:29:53.128Z,106.97
2019-02-09T05:32:20.989Z,109.07
2019-02-09T05:34:48.565Z,109.83
2019-02-09T05:37:16.076Z,101.40
2019-02-09T05:39:43.590Z,107.77
2019-02-09T05:42:11.114Z,106.80
2019-02-09T05:44:38.612Z,99.47
2019-02-09T05:47:06.100Z,103.97
2019-02-09T05:49:33.632Z,105.73
2019-02-09T05:52:01.122Z,99.57
2019-02-09T05:54:28.617Z,110.00
2019-02-09T05:56:56.136Z,102.83
2019-02-09T05:59:23.643Z,102.73
2019-02-09T06:01:51.154Z,106.40
2019-02-09T06:04:18.676Z,105.50
2019-02-09T06:06:46.194Z,96.33
2019-02-09T06:09:13.710Z,109.50
2019-02-09T06:11:41.233Z,95.73
2019-02-09T06:14:08.732Z,116.80
2019-02-09T06:16:36.257Z,104.53
2019-02-09T06:19:03.820Z,112.20
2019-02-09T06:21:31.332Z,94.97
2019-02-09T06:23:58.850Z,108.73
2019-02-09T06:26:26.418Z,126.97
2019-02-09T06:28:53.992Z,112.87
2019-02-09T06:31:21.499Z,101.40
2019-02-09T06:33:51.073Z,102.33
2019-02-09T06:36:18.603Z,119.33
2019-02-09T06:38:46.201Z,122.57
2019-02-09T06:41:13.695Z,113.07
2019-02-09T06:43:41.221Z,124.90
2019-02-09T06:46:08.750Z,122.27
2019-02-09T06:48:36.291Z,121.70
2019-02-09T06:51:04.806Z,113.63
2019-02-09T06:53:32.375Z,99.83
2019-02-09T06:55:59.894Z,116.37
2019-02-09T06:58:27.414Z,107.90
2019-02-09T07:00:54.968Z,119.20
2019-02-09T07:03:22.540Z,110.90
2019-02-09T07:05:51.142Z,113.47
2019-02-09T07:08:18.656Z,122.10
2019-02-09T07:10:46.441Z,117.87
2019-02-09T07:13:13.974Z,115.00
2019-02-09T07:15:41.772Z,78.60
2019-02-09T07:18:09.339Z,116.77
2019-02-09T07:20:36.826Z,123.87
2019-02-09T07:23:04.979Z,114.97
2019-02-09T07:25:32.615Z,114.70
2019-02-09T07:28:00.146Z,114.57
2019-02-09T07:30:28.858Z,111.33
2019-02-09T07:32:57.626Z,119.73
2019-02-09T07:35:25.231Z,102.10
2019-02-09T07:37:52.838Z,114.53
2019-02-09T07:40:21.156Z,111.73
2019-02-09T07:42:48.766Z,112.33
2019-02-09T07:45:18.394Z,114.53
2019-02-09T07:47:45.948Z,119.10
2019-02-09T07:50:15.249Z,108.13
2019-02-09T07:52:42.770Z,102.80
2019-02-09T07:55:12.018Z,120.23
2019-02-09T07:57:39.542Z,113.73
2019-02-09T08:00:10.790Z,122.97
2019-02-09T08:02:38.370Z,110.73
2019-02-09T08:05:06.114Z,90.27
2019-02-09T08:07:33.642Z,120.23
2019-02-09T08:10:01.178Z,113.87
2019-02-09T08:12:28.720Z,110.13
2019-02-09T08:14:56.215Z,108.80
2019-02-09T08:17:23.748Z,121.20
2019-02-09T08:19:51.294Z,108.93
2019-02-09T08:22:18.813Z,109.80
2019-02-09T08:24:46.306Z,111.20
2019-02-09T08:27:13.881Z,110.40
2019-02-09T08:29:41.446Z,110.77
2019-02-09T08:32:12.764Z,112.87
2019-02-09T08:34:40.575Z,110.93
2019-02-09T08:37:20.802Z,92.77
2019-02-09T08:40:09.410Z,102.77
2019-02-09T08:42:49.172Z,100.43
2019-02-09T08:45:17.662Z,100.63
2019-02-09T08:47:45.282Z,96.07
2019-02-09T08:50:16.394Z,101.80
2019-02-09T08:52:48.126Z,93.23
2019-02-09T08:55:24.666Z,95.57
2019-02-09T08:57:52.370Z,98.57
2019-02-09T09:00:22.806Z,99.77
2019-02-09T09:02:52.622Z,92.83
2019-02-09T09:05:20.110Z,87.30
2019-02-09T09:07:47.736Z,80.03
2019-02-09T09:10:16.034Z,82.40
2019-02-09T09:12:43.542Z,86.33
2019-02-09T09:15:17.084Z,92.40
2019-02-09T09:17:44.573Z,70.27
2019-02-09T09:20:16.276Z,82.80
2019-02-09T09:22:43.760Z,92.60
2019-02-09T09:25:11.320Z,74.60
2019-02-09T09:27:38.864Z,86.33
2019-02-09T09:30:08.566Z,88.30
2019-02-09T09:32:36.082Z,89.87
2019-02-09T09:35:23.236Z,85.67
2019-02-09T09:37:51.072Z,90.07
2019-02-09T09:40:26.638Z,81.07
2019-02-09T09:42:54.974Z,83.87
2019-02-09T09:45:24.899Z,79.27
2019-02-09T09:47:52.618Z,78.97
2019-02-09T09:50:21.466Z,84.33
2019-02-09T09:52:49.178Z,80.93
2019-02-09T09:55:17.184Z,90.77
2019-02-09T09:57:44.706Z,76.97
2019-02-09T10:00:14.256Z,72.73
2019-02-09T10:02:41.768Z,77.00
2019-02-09T10:05:09.468Z,81.17
2019-02-09T10:07:37.026Z,73.03
2019-02-09T10:10:05.983Z,62.70
2019-02-09T10:12:33.670Z,72.10
2019-02-09T10:15:01.318Z,80.20
2019-02-09T10:17:28.798Z,77.73
2019-02-09T10:19:56.350Z,81.83
2019-02-09T10:22:33.890Z,68.40
2019-02-09T10:25:01.369Z,81.67
2019-02-09T10:27:33.690Z,55.67
2019-02-09T10:30:01.205Z,80.07
2019-02-09T10:32:53.972Z,72.60
2019-02-09T10:35:30.389Z,69.03
2019-02-09T10:37:57.898Z,73.90
2019-02-09T10:40:27.354Z,59.60
2019-02-09T10:42:55.109Z,66.13
2019-02-09T10:45:27.206Z,68.67
2019-02-09T10:47:54.818Z,72.27
2019-02-09T10:50:27.932Z,68.63
2019-02-09T10:52:55.434Z,68.13
2019-02-09T10:55:23.020Z,68.73
2019-02-09T10:57:51.954Z,69.67
2019-02-09T11:00:35.090Z,62.30
2019-02-09T11:03:25.596Z,62.90
2019-02-09T11:06:01.450Z,66.73
2019-02-09T11:08:34.628Z,64.13
2019-02-09T11:11:02.094Z,63.77
2019-02-09T11:13:30.209Z,66.47
2019-02-09T11:15:57.730Z,68.07
2019-02-09T11:18:25.255Z,68.00
2019-02-09T11:20:52.846Z,56.63
2019-02-09T11:23:20.373Z,60.67
2019-02-09T11:25:48.004Z,64.70
2019-02-09T11:28:15.552Z,57.23
2019-02-09T11:30:43.126Z,57.60
2019-02-09T11:33:10.666Z,56.60
2019-02-09T11:35:38.162Z,56.20
2019-02-09T11:38:05.860Z,49.97
2019-02-09T11:40:33.474Z,50.80
2019-02-09T11:43:02.238Z,53.50
2019-02-09T11:45:31.919Z,50.63
2019-02-09T11:47:59.548Z,50.93
2019-02-09T11:50:29.070Z,49.47
2019-02-09T11:52:56.895Z,53.57
2019-02-09T11:55:24.493Z,53.80
2019-02-09T11:57:52.038Z,45.40
2019-02-09T12:00:34.101Z,45.37
2019-02-09T12:03:05.529Z,53.17
2019-02-09T12:05:31.013Z,50.20
2019-02-09T12:07:58.587Z,45.30
2019-02-09T12:10:26.389Z,42.23
2019-02-09T12:12:53.922Z,44.53
2019-02-09T12:15:25.348Z,42.07
2019-02-09T12:17:53.147Z,45.43
2019-02-09T12:20:20.970Z,41.27
2019-02-09T12:22:56.891Z,42.13
2019-02-09T12:25:29.234Z,41.20
2019-02-09T12:27:56.698Z,40.53
2019-02-09T12:30:43.427Z,44.07
2019-02-09T12:33:10.961Z,37.83
2019-02-09T12:35:38.785Z,39.90
2019-02-09T12:38:06.696Z,43.87
2019-02-09T12:40:34.294Z,41.80
2019-02-09T12:43:01.810Z,46.37
2019-02-09T12:45:30.794Z,38.20
2019-02-09T12:47:58.362Z,42.67
2019-02-09T12:50:26.231Z,45.17
2019-02-09T12:52:53.736Z,43.83
2019-02-09T12:55:39.450Z,45.27
2019-02-09T12:58:07.300Z,45.80
2019-02-09T13:01:03.482Z,51.03
2019-02-09T13:03:31.635Z,39.20
2019-02-09T13:05:59.337Z,41.13
2019-02-09T13:08:26.896Z,42.53
2019-02-09T13:10:54.805Z,48.20
2019-02-09T13:13:22.341Z,44.57
2019-02-09T13:15:49.893Z,41.27
2019-02-09T13:18:21.224Z,49.57
2019-02-09T13:21:02.430Z,47.13
2019-02-09T13:24:28.912Z,40.87
2019-02-09T13:26:56.453Z,41.20
2019-02-09T13:29:24.037Z,53.47
2019-02-09T13:31:51.663Z,44.67
2019-02-09T13:34:39.037Z,45.63
2019-02-09T13:37:08.902Z,43.97
2019-02-09T13:39:39.258Z,48.40
2019-02-09T13:42:07.274Z,40.37
2019-02-09T13:44:47.022Z,43.60
2019-02-09T13:47:14.544Z,43.37
2019-02-09T13:49:49.824Z,44.20
2019-02-09T13:53:05.289Z,43.00
2019-02-09T13:55:32.231Z,50.73
2019-02-09T13:58:21.423Z,56.37
2019-02-09T14:00:44.736Z,49.00
2019-02-09T14:03:12.291Z,52.43
2019-02-09T14:05:44.617Z,59.87
2019-02-09T14:08:12.485Z,69.50
2019-02-09T14:10:51.192Z,52.33
2019-02-09T14:13:19.964Z,72.47
2019-02-09T14:15:47.499Z,284.57
2019-02-09T14:18:15.094Z,119.30
2019-02-09T14:20:42.633Z,99.37
2019-02-09T14:23:10.184Z,56.43
2019-02-09T14:25:37.742Z,51.90
2019-02-09T14:28:05.618Z,49.00
2019-02-09T14:30:33.478Z,61.77
2019-02-09T14:33:02.554Z,50.00
2019-02-09T14:35:30.144Z,55.97
2019-02-09T14:38:01.676Z,55.53
2019-02-09T14:40:35.723Z,52.83
2019-02-09T14:43:04.069Z,46.53
2019-02-09T14:45:33.474Z,52.57
2019-02-09T14:48:01.209Z,54.47
2019-02-09T14:50:29.513Z,45.70
2019-02-09T14:52:57.242Z,47.90
2019-02-09T14:55:33.057Z,49.60
2019-02-09T14:58:01.005Z,48.83
2019-02-09T15:00:49.570Z,56.47
2019-02-09T15:03:17.281Z,51.57
2019-02-09T15:05:45.557Z,52.23
2019-02-09T15:08:13.088Z,51.50
2019-02-09T15:10:40.626Z,56.10
2019-02-09T15:13:14.180Z,55.73
2019-02-09T15:16:04.660Z,48.97
2019-02-09T15:18:32.251Z,48.20
2019-02-09T15:21:01.541Z,48.97
2019-02-09T15:23:42.219Z,59.97
2019-02-09T15:26:09.845Z,51.17
2019-02-09T15:28:37.386Z,57.10
2019-02-09T15:31:05.210Z,49.37
2019-02-09T15:33:32.789Z,53.87
2019-02-09T15:36:00.321Z,58.13
2019-02-09T15:38:27.912Z,46.93
2019-02-09T15:40:55.481Z,50.57
2019-02-09T15:43:24.712Z,51.90
2019-02-09T15:45:55.219Z,50.90
2019-02-09T15:48:25.760Z,52.60
2019-02-09T15:50:55.760Z,52.27
2019-02-09T15:53:26.563Z,53.73
2019-02-09T15:55:56.633Z,44.00
2019-02-09T15:58:24.133Z,52.20
2019-02-09T16:00:51.692Z,50.47
2019-02-09T16:03:19.269Z,66.50
2019-02-09T16:05:46.827Z,51.80
2019-02-09T16:08:14.342Z,66.73
2019-02-09T16:10:41.928Z,66.60
2019-02-09T16:13:09.459Z,67.97
2019-02-09T16:15:37.006Z,49.73
2019-02-09T16:18:04.566Z,46.53
2019-02-09T16:20:32.217Z,48.83
2019-02-09T16:22:59.719Z,50.57
2019-02-09T16:25:27.415Z,44.10
2019-02-09T16:27:55.001Z,41.40
2019-02-09T16:30:23.804Z,46.63
2019-02-09T16:32:51.385Z,48.73
2019-02-09T16:35:20.185Z,46.87
2019-02-09T16:37:48.083Z,51.03
2019-02-09T16:40:19.973Z,43.50
2019-02-09T16:42:47.563Z,53.50
2019-02-09T16:45:18.066Z,47.67
2019-02-09T16:47:45.626Z,41.80
2019-02-09T16:50:13.507Z,46.57
2019-02-09T16:52:41.057Z,61.83
2019-02-09T16:55:09.211Z,48.40
2019-02-09T16:57:36.725Z,44.23
2019-02-09T17:00:05.987Z,48.53
2019-02-09T17:02:33.507Z,43.10
2019-02-09T17:05:01.190Z,50.57
2019-02-09T17:07:28.737Z,42.10
2019-02-09T17:09:56.279Z,44.57
2019-02-09T17:12:23.895Z,46.30
2019-02-09T17:14:51.395Z,63.30
2019-02-09T17:17:18.910Z,46.17
2019-02-09T17:19:46.477Z,54.60
2019-02-09T17:22:14.001Z,43.90
2019-02-09T17:24:41.543Z,44.10
2019-02-09T17:27:09.074Z,43.27
2019-02-09T17:29:36.606Z,42.20
2019-02-09T17:32:04.140Z,41.93
2019-02-09T17:34:51.834Z,45.60
2019-02-09T17:37:19.322Z,43.33
2019-02-09T17:39:46.857Z,38.37
2019-02-09T17:42:14.466Z,47.67
2019-02-09T17:44:42.024Z,43.07
2019-02-09T17:47:14.314Z,50.77
2019-02-09T17:49:41.920Z,48.53
2019-02-09T17:52:09.505Z,46.50
2019-02-09T17:54:37.082Z,41.93
2019-02-09T17:57:04.670Z,45.07
2019-02-09T17:59:32.292Z,39.73
2019-02-09T18:01:59.813Z,52.40
2019-02-09T18:04:27.514Z,43.30
2019-02-09T18:06:55.079Z,49.67
2019-02-09T18:09:22.611Z,57.67
2019-02-09T18:11:50.290Z,54.13
2019-02-09T18:14:17.835Z,47.37
2019-02-09T18:16:45.365Z,52.53
2019-02-09T18:19:12.917Z,44.60
2019-02-09T18:21:52.509Z,42.83
2019-02-09T18:24:42.426Z,48.07
2019-02-09T18:27:09.951Z,44.67
2019-02-09T18:29:42.357Z,46.43
2019-02-09T18:32:09.954Z,43.50
2019-02-09T18:34:37.465Z,42.30
2019-02-09T18:37:05.080Z,42.23
2019-02-09T18:39:35.182Z,47.90
2019-02-09T18:42:02.741Z,48.40
2019-02-09T18:44:31.859Z,46.63
2019-02-09T18:46:59.561Z,52.53
2019-02-09T18:49:27.117Z,48.03
2019-02-09T18:51:54.699Z,38.47
2019-02-09T18:54:22.237Z,37.83
2019-02-09T18:56:49.747Z,43.00
2019-02-09T18:59:17.305Z,37.83
2019-02-09T19:01:44.821Z,39.53
2019-02-09T19:04:12.689Z,45.73
2019-02-09T19:06:40.297Z,47.07
2019-02-09T19:09:11.823Z,48.80
2019-02-09T19:11:39.371Z,46.30
2019-02-09T19:14:07.242Z,48.10
2019-02-09T19:16:34.767Z,42.13
2019-02-09T19:19:02.523Z,48.13
2019-02-09T19:21:30.463Z,45.63
2019-02-09T19:24:13.465Z,50.80
2019-02-09T19:26:40.985Z,44.33
2019-02-09T19:29:08.507Z,51.00
2019-02-09T19:31:36.048Z,46.63
2019-02-09T19:34:04.089Z,45.10
2019-02-09T19:36:31.629Z,42.70
2019-02-09T19:38:59.170Z,43.23
2019-02-09T19:41:26.705Z,43.83
2019-02-09T19:43:54.251Z,47.33
2019-02-09T19:46:21.782Z,46.87
2019-02-09T19:48:49.301Z,58.43
2019-02-09T19:51:16.904Z,49.73
2019-02-09T19:53:44.437Z,47.87
2019-02-09T19:56:12.005Z,45.00
2019-02-09T19:58:39.557Z,50.07
2019-02-09T20:01:07.091Z,52.50
2019-02-09T20:03:34.612Z,48.17
2019-02-09T20:06:02.173Z,43.67
2019-02-09T20:08:29.675Z,49.63
2019-02-09T20:10:57.323Z,38.90
2019-02-09T20:13:26.060Z,42.23
2019-02-09T20:15:53.493Z,43.10
2019-02-09T20:18:21.009Z,42.87
2019-02-09T20:20:48.581Z,40.23
2019-02-09T20:23:17.980Z,49.23
2019-02-09T20:25:45.404Z,51.93
2019-02-09T20:28:12.986Z,52.30
2019-02-09T20:30:40.600Z,54.33
2019-02-09T20:33:08.130Z,46.57
2019-02-09T20:35:35.977Z,50.37
2019-02-09T20:38:04.103Z,48.60
2019-02-09T20:40:36.766Z,47.17
2019-02-09T20:43:05.301Z,42.13
2019-02-09T20:45:32.861Z,41.40
2019-02-09T20:48:00.450Z,37.87
2019-02-09T20:50:27.995Z,44.20
2019-02-09T20:52:55.531Z,44.20
2019-02-09T20:55:23.095Z,40.43
2019-02-09T20:57:50.953Z,42.83
2019-02-09T21:00:19.723Z,36.97
2019-02-09T21:02:47.281Z,44.13
2019-02-09T21:05:15.337Z,39.53
2019-02-09T21:07:42.873Z,41.33
2019-02-09T21:10:29.377Z,43.77
2019-02-09T21:12:57.059Z,44.97
2019-02-09T21:15:25.625Z,43.93
2019-02-09T21:17:53.189Z,37.73
2019-02-09T21:20:20.815Z,43.37
2019-02-09T21:22:48.366Z,37.70
2019-02-09T21:25:26.969Z,45.63
2019-02-09T21:27:54.542Z,44.43
2019-02-09T21:30:22.105Z,44.20
2019-02-09T21:32:49.684Z,44.73
2019-02-09T21:35:17.361Z,50.73
2019-02-09T21:37:45.001Z,48.40
2019-02-09T21:40:16.026Z,40.23
2019-02-09T21:42:44.041Z,46.93
2019-02-09T21:45:17.308Z,53.03
2019-02-09T21:47:44.954Z,48.10
2019-02-09T21:50:24.553Z,45.80
2019-02-09T21:52:52.088Z,46.13
2019-02-09T21:55:19.897Z,47.87
2019-02-09T21:57:47.529Z,49.33
2019-02-09T22:00:20.621Z,48.80
2019-02-09T22:02:48.541Z,52.83
2019-02-09T22:05:16.569Z,53.57
2019-02-09T22:07:44.521Z,49.07
2019-02-09T22:10:15.208Z,53.40
2019-02-09T22:12:43.009Z,51.60
2019-02-09T22:15:11.134Z,43.17
2019-02-09T22:17:38.762Z,50.50
2019-02-09T22:20:09.157Z,50.17
2019-02-09T22:22:36.710Z,49.47
2019-02-09T22:25:05.988Z,48.97
2019-02-09T22:27:33.718Z,49.87
2019-02-09T22:30:01.744Z,50.50
2019-02-09T22:32:29.800Z,52.00
2019-02-09T22:35:00.278Z,52.77
2019-02-09T22:37:32.761Z,58.37
2019-02-09T22:40:02.667Z,57.13
2019-02-09T22:42:30.351Z,55.33
2019-02-09T22:45:00.889Z,57.33
2019-02-09T22:47:28.789Z,53.67
2019-02-09T22:50:01.284Z,56.20
2019-02-09T22:52:41.320Z,48.20
2019-02-09T22:55:09.807Z,52.63
2019-02-09T22:57:37.301Z,51.90
2019-02-09T23:00:16.136Z,63.47
2019-02-09T23:02:43.768Z,66.63
2019-02-09T23:06:08.191Z,64.87
2019-02-09T23:08:38.023Z,50.60
2019-02-09T23:11:05.596Z,48.23
2019-02-09T23:13:33.100Z,49.30
2019-02-09T23:16:03.774Z,51.17
2019-02-09T23:18:31.294Z,56.93
2019-02-09T23:20:59.021Z,52.80
2019-02-09T23:23:26.570Z,58.13
2019-02-09T23:25:55.036Z,61.17
2019-02-09T23:28:22.608Z,58.77
2019-02-09T23:30:50.296Z,57.93
2019-02-09T23:33:17.805Z,66.87
2019-02-09T23:35:45.358Z,62.77
2019-02-09T23:38:12.936Z,63.80
2019-02-09T23:40:40.474Z,53.43
2019-02-09T23:43:08.113Z,52.10
2019-02-09T23:45:35.859Z,56.80
2019-02-09T23:48:03.340Z,63.83
2019-02-09T23:50:30.839Z,59.43
2019-02-09T23:52:58.384Z,58.47
2019-02-09T23:55:25.904Z,58.33
2019-02-09T23:57:54.308Z,55.07
